Time;durP1;ratioP1;P1;durP2;ratioP2;P2;SDS_P1;SDS_P2;PMS_P1;PMS_P2;Temp;Humidity;BMP_temperature;BMP_pressure;BME280_temperature;BME280_humidity;BME280_pressure;Samples;Min_cycle;Max_cycle;Signal;HPM_P1;HPM_P2
2021/06/20 00:00:14;;;;;;;8.63;7.83;;;27.60;99.90;;;;;;4969323;28;20483;-79
2021/06/20 00:02:42;;;;;;;9.47;7.70;;;27.70;99.90;;;;;;4972440;28;20994;-78
2021/06/20 00:05:14;;;;;;;7.63;6.60;;;27.70;99.90;;;;;;4982735;28;20455;-78
2021/06/20 00:07:45;;;;;;;9.43;7.23;;;27.80;99.90;;;;;;4969707;28;21159;-78
2021/06/20 00:10:15;;;;;;;9.13;6.90;;;27.70;99.90;;;;;;4968227;28;20533;-77
2021/06/20 00:12:43;;;;;;;8.27;7.33;;;27.80;99.90;;;;;;4968471;28;20454;-79
2021/06/20 00:15:15;;;;;;;8.07;7.27;;;27.80;99.90;;;;;;4969699;28;20860;-79
2021/06/20 00:17:44;;;;;;;12.30;7.33;;;27.70;99.90;;;;;;4967420;28;20487;-78
2021/06/20 00:20:16;;;;;;;7.87;6.87;;;27.70;99.90;;;;;;4969290;28;20471;-78
2021/06/20 00:22:45;;;;;;;7.20;6.50;;;27.70;99.90;;;;;;4970879;28;20510;-78
2021/06/20 00:25:14;;;;;;;7.33;6.60;;;27.60;99.90;;;;;;4982474;28;20454;-78
2021/06/20 00:27:44;;;;;;;8.67;7.33;;;27.60;99.90;;;;;;4966796;28;20542;-78
2021/06/20 00:30:15;;;;;;;9.47;7.80;;;27.60;99.90;;;;;;4969746;28;20494;-79
2021/06/20 00:32:45;;;;;;;8.90;8.13;;;27.50;99.90;;;;;;4970898;28;20463;-79
2021/06/20 00:35:16;;;;;;;9.00;7.60;;;27.50;99.90;;;;;;4971069;28;20439;-79
2021/06/20 00:37:44;;;;;;;9.77;7.70;;;27.50;99.90;;;;;;4963348;28;20463;-78
2021/06/20 00:40:15;;;;;;;12.10;7.77;;;27.50;99.90;;;;;;4967966;28;20990;-78
2021/06/20 00:42:43;;;;;;;15.20;6.90;;;27.50;99.90;;;;;;4970190;28;20451;-77
2021/06/20 00:45:14;;;;;;;12.07;7.47;;;27.40;99.90;;;;;;4968961;28;20443;-79
2021/06/20 00:47:43;;;;;;;13.97;7.00;;;27.50;99.90;;;;;;4971361;28;20455;-78
2021/06/20 00:50:15;;;;;;;16.27;7.30;;;27.40;99.90;;;;;;4968788;28;20566;-78
2021/06/20 00:52:43;;;;;;;12.47;6.90;;;27.30;99.90;;;;;;4970202;28;20878;-78
2021/06/20 00:55:13;;;;;;;13.47;6.53;;;27.30;99.90;;;;;;4967992;28;20483;-77
2021/06/20 00:57:43;;;;;;;21.07;7.93;;;27.30;99.90;;;;;;4969209;28;20563;-80
2021/06/20 01:00:13;;;;;;;17.63;8.67;;;27.30;99.90;;;;;;4969044;28;20468;-78
2021/06/20 01:02:44;;;;;;;14.93;7.07;;;27.30;99.90;;;;;;4971969;28;20962;-78
2021/06/20 01:05:14;;;;;;;18.97;7.50;;;27.40;99.90;;;;;;4974765;28;20458;-78
2021/06/20 01:07:43;;;;;;;21.73;7.40;;;27.40;99.90;;;;;;4974114;28;20461;-78
2021/06/20 01:10:13;;;;;;;19.40;8.33;;;27.40;99.90;;;;;;4975609;28;20486;-79
2021/06/20 01:12:42;;;;;;;18.20;7.40;;;27.40;99.90;;;;;;4973043;28;20548;-79
2021/06/20 01:15:11;;;;;;;13.77;7.73;;;27.40;99.90;;;;;;4971730;28;20459;-79
2021/06/20 01:17:40;;;;;;;15.83;7.40;;;27.40;99.90;;;;;;4971298;28;20478;-78
2021/06/20 01:20:11;;;;;;;17.77;7.23;;;27.30;99.90;;;;;;4964607;28;20478;-80
2021/06/20 01:22:43;;;;;;;15.47;7.30;;;27.30;99.90;;;;;;4972610;28;20435;-79
2021/06/20 01:25:13;;;;;;;17.83;7.63;;;27.20;99.90;;;;;;4974477;28;20450;-78
2021/06/20 01:27:45;;;;;;;21.43;7.30;;;27.20;99.90;;;;;;4986785;28;21190;-78
2021/06/20 01:30:16;;;;;;;22.20;7.60;;;27.30;99.90;;;;;;4972518;28;20490;-78
2021/06/20 01:32:44;;;;;;;16.30;6.77;;;27.30;99.90;;;;;;4979102;28;20459;-79
2021/06/20 01:35:14;;;;;;;19.63;7.67;;;27.30;99.90;;;;;;4973718;28;20462;-78
2021/06/20 01:37:45;;;;;;;21.00;6.63;;;27.30;99.90;;;;;;4969348;28;20562;-79
2021/06/20 01:40:15;;;;;;;15.43;7.37;;;27.30;99.90;;;;;;4972357;28;20463;-79
2021/06/20 01:42:45;;;;;;;16.13;7.17;;;27.20;99.90;;;;;;4970614;28;21197;-78
2021/06/20 01:45:16;;;;;;;16.93;7.20;;;27.10;99.90;;;;;;4971902;28;20502;-79
2021/06/20 01:47:45;;;;;;;13.53;5.03;;;27.00;99.90;;;;;;4969315;28;20451;-78
2021/06/20 01:50:15;;;;;;;15.93;6.80;;;27.00;99.90;;;;;;4972080;28;21011;-78
2021/06/20 01:52:45;;;;;;;11.73;7.30;;;27.10;99.90;;;;;;4976610;28;20479;-77
2021/06/20 01:55:16;;;;;;;17.70;5.43;;;27.10;99.90;;;;;;4973014;28;20443;-78
2021/06/20 01:57:46;;;;;;;21.17;6.90;;;27.10;99.90;;;;;;4969488;28;21226;-77
2021/06/20 02:00:17;;;;;;;16.80;6.00;;;27.10;99.90;;;;;;4981914;28;20466;-79
2021/06/20 02:02:45;;;;;;;22.43;7.00;;;27.10;99.90;;;;;;4971019;28;20463;-79
2021/06/20 02:05:15;;;;;;;14.40;6.47;;;27.10;99.90;;;;;;4973170;28;20864;-79
2021/06/20 02:07:46;;;;;;;12.63;5.70;;;27.10;99.90;;;;;;4962118;28;20463;-78
2021/06/20 02:10:14;;;;;;;21.13;6.40;;;27.10;99.90;;;;;;4972539;28;20467;-79
2021/06/20 02:12:44;;;;;;;14.23;5.70;;;27.10;99.90;;;;;;4959994;28;21063;-78
2021/06/20 02:15:15;;;;;;;28.10;7.47;;;27.00;99.90;;;;;;4952506;29;20456;-79
2021/06/20 02:17:46;;;;;;;14.67;7.60;;;27.00;99.90;;;;;;4969700;28;20455;-78
2021/06/20 02:20:17;;;;;;;21.90;6.83;;;26.90;99.90;;;;;;4971924;28;20483;-77
2021/06/20 02:22:48;;;;;;;24.97;6.50;;;26.80;99.90;;;;;;4970098;28;21021;-78
2021/06/20 02:25:17;;;;;;;17.50;7.83;;;26.90;99.90;;;;;;4970614;28;20879;-78
2021/06/20 02:27:47;;;;;;;15.20;6.50;;;26.90;99.90;;;;;;4972246;28;20479;-79
2021/06/20 02:30:17;;;;;;;11.00;5.20;;;26.90;99.90;;;;;;4970363;28;20486;-77
2021/06/20 02:32:46;;;;;;;12.90;4.90;;;26.90;99.90;;;;;;4971611;28;20463;-78
2021/06/20 02:35:16;;;;;;;16.73;5.27;;;27.00;99.90;;;;;;4963888;28;20575;-78
2021/06/20 02:37:47;;;;;;;18.10;6.10;;;27.00;99.90;;;;;;4971861;28;20443;-77
2021/06/20 02:40:16;;;;;;;14.37;6.40;;;27.00;99.90;;;;;;4965872;28;20561;-79
2021/06/20 02:42:45;;;;;;;17.30;5.87;;;27.00;99.90;;;;;;4971380;28;20501;-78
2021/06/20 02:45:18;;;;;;;14.60;6.63;;;26.90;99.90;;;;;;4965628;28;20463;-78
2021/06/20 02:47:48;;;;;;;23.43;5.60;;;26.90;99.90;;;;;;4973246;28;21020;-78
2021/06/20 02:50:17;;;;;;;11.53;5.10;;;26.90;99.90;;;;;;4966314;28;20466;-77
2021/06/20 02:52:47;;;;;;;15.70;6.37;;;26.90;99.90;;;;;;4971677;28;20436;-77
2021/06/20 02:55:16;;;;;;;15.10;6.23;;;26.90;99.90;;;;;;4983224;28;20461;-77
2021/06/20 02:57:45;;;;;;;15.67;6.50;;;26.80;99.90;;;;;;4985174;28;20470;-78
2021/06/20 03:00:15;;;;;;;10.27;5.67;;;26.70;99.90;;;;;;4969077;28;21331;-77
2021/06/20 03:02:48;;;;;;;20.10;6.03;;;26.70;99.90;;;;;;4968366;28;20455;-76
2021/06/20 03:05:16;;;;;;;23.23;6.00;;;26.70;99.90;;;;;;4967893;28;20529;-77
2021/06/20 03:07:46;;;;;;;17.27;7.17;;;26.70;99.90;;;;;;4970559;28;20463;-79
2021/06/20 03:10:15;;;;;;;13.87;5.70;;;26.60;99.90;;;;;;4970166;28;20479;-78
2021/06/20 03:12:43;;;;;;;12.27;5.60;;;26.60;99.90;;;;;;4971259;28;20491;-78
2021/06/20 03:15:12;;;;;;;14.40;6.17;;;26.60;99.90;;;;;;4967991;28;20496;-78
2021/06/20 03:17:40;;;;;;;15.03;6.60;;;26.60;99.90;;;;;;4971271;28;20505;-79
2021/06/20 03:20:09;;;;;;;12.23;5.20;;;26.50;99.90;;;;;;4969725;28;20491;-78
2021/06/20 03:22:38;;;;;;;11.47;5.93;;;26.40;99.90;;;;;;4970163;28;20448;-78
2021/06/20 03:25:09;;;;;;;18.67;6.67;;;26.40;99.90;;;;;;4969539;28;20457;-79
2021/06/20 03:27:38;;;;;;;20.47;6.10;;;26.40;99.90;;;;;;4972534;28;20466;-79
2021/06/20 03:30:08;;;;;;;16.03;6.27;;;26.40;99.90;;;;;;4968996;28;20483;-77
2021/06/20 03:32:36;;;;;;;15.77;5.53;;;26.40;99.90;;;;;;4971649;28;20518;-79
2021/06/20 03:35:05;;;;;;;15.60;5.60;;;26.50;99.90;;;;;;4964493;28;20445;-78
2021/06/20 03:37:33;;;;;;;18.63;5.87;;;26.50;99.90;;;;;;4971656;28;20867;-78
2021/06/20 03:40:01;;;;;;;13.90;5.73;;;26.50;99.90;;;;;;4968277;28;20490;-78
2021/06/20 03:42:30;;;;;;;18.23;5.93;;;26.40;99.90;;;;;;4968703;28;20462;-78
2021/06/20 03:44:59;;;;;;;11.43;5.63;;;26.30;99.90;;;;;;4966891;28;21045;-77
2021/06/20 03:47:28;;;;;;;16.87;5.27;;;26.30;99.90;;;;;;4970881;28;20449;-78
2021/06/20 03:49:56;;;;;;;12.23;5.97;;;26.30;99.90;;;;;;4968990;28;20522;-79
2021/06/20 03:52:24;;;;;;;10.97;5.33;;;26.40;99.90;;;;;;4970254;28;20454;-78
2021/06/20 03:54:52;;;;;;;11.40;5.07;;;26.40;99.90;;;;;;4969016;28;20986;-78
2021/06/20 03:57:22;;;;;;;12.60;4.67;;;26.40;99.90;;;;;;4968925;28;20505;-78
2021/06/20 03:59:52;;;;;;;9.47;5.57;;;26.40;99.90;;;;;;4950418;28;20475;-77
2021/06/20 04:02:20;;;;;;;13.43;5.97;;;26.40;99.90;;;;;;4971128;28;20451;-78
2021/06/20 04:04:48;;;;;;;13.67;5.43;;;26.40;99.90;;;;;;4966577;28;20451;-78
2021/06/20 04:07:17;;;;;;;13.90;5.30;;;26.40;99.90;;;;;;4970903;28;20956;-77
2021/06/20 04:09:46;;;;;;;16.73;6.43;;;26.30;99.90;;;;;;4969050;28;20459;-77
2021/06/20 04:12:14;;;;;;;15.63;5.87;;;26.30;99.90;;;;;;4969106;28;20463;-78
2021/06/20 04:14:44;;;;;;;9.80;4.73;;;26.30;99.90;;;;;;4967424;28;20543;-79
2021/06/20 04:17:13;;;;;;;11.57;4.20;;;26.30;99.90;;;;;;4970753;28;20487;-77
2021/06/20 04:19:41;;;;;;;11.17;4.37;;;26.30;99.90;;;;;;4968887;28;20526;-78
2021/06/20 04:22:10;;;;;;;10.53;4.80;;;26.40;99.90;;;;;;4969960;28;20959;-78
2021/06/20 04:24:38;;;;;;;12.73;4.70;;;26.40;99.90;;;;;;4968099;28;20963;-78
2021/06/20 04:27:07;;;;;;;10.27;4.10;;;26.30;99.90;;;;;;4968717;28;20456;-78
2021/06/20 04:29:35;;;;;;;10.20;3.77;;;26.30;99.90;;;;;;4967595;28;20466;-78
2021/06/20 04:32:04;;;;;;;7.27;3.70;;;26.30;99.90;;;;;;4969784;28;20538;-81
2021/06/20 04:34:33;;;;;;;9.47;3.73;;;26.30;99.90;;;;;;4970314;28;20474;-79
2021/06/20 04:37:01;;;;;;;6.63;3.43;;;26.30;99.90;;;;;;4976061;28;20474;-79
2021/06/20 04:39:29;;;;;;;7.23;3.40;;;26.40;99.90;;;;;;4975973;28;20463;-78
2021/06/20 04:41:57;;;;;;;10.30;3.50;;;26.40;99.90;;;;;;4976467;28;20590;-78
2021/06/20 04:44:44;;;;;;;10.33;3.33;;;26.40;99.90;;;;;;4974698;28;20997;-78
2021/06/20 04:47:14;;;;;;;6.47;3.40;;;26.40;99.90;;;;;;4975693;28;21047;-78
2021/06/20 04:49:44;;;;;;;6.10;2.97;;;26.40;99.90;;;;;;4976033;28;20439;-78
2021/06/20 04:52:13;;;;;;;5.07;2.33;;;26.40;99.90;;;;;;4974859;28;20461;-78
2021/06/20 04:54:51;;;;;;;7.40;2.97;;;26.50;99.90;;;;;;4974940;28;20537;-79
2021/06/20 04:57:20;;;;;;;4.33;2.40;;;26.50;99.90;;;;;;4964283;28;20467;-79
2021/06/20 04:59:49;;;;;;;5.50;3.03;;;26.40;99.90;;;;;;4985161;28;20887;-78
2021/06/20 05:02:18;;;;;;;10.40;2.77;;;26.40;99.90;;;;;;4970369;28;20472;-79
2021/06/20 05:04:47;;;;;;;8.77;3.03;;;26.50;99.90;;;;;;4970356;28;20510;-78
2021/06/20 05:07:16;;;;;;;4.03;2.73;;;26.50;99.90;;;;;;4974194;28;20454;-78
2021/06/20 05:09:45;;;;;;;6.37;2.83;;;26.50;99.90;;;;;;4992015;28;20516;-76
2021/06/20 05:12:13;;;;;;;6.10;3.17;;;26.50;99.90;;;;;;4971581;28;20718;-78
2021/06/20 05:14:43;;;;;;;10.07;3.03;;;26.40;99.90;;;;;;4968367;28;21043;-79
2021/06/20 05:17:12;;;;;;;7.67;3.20;;;26.40;99.90;;;;;;4974981;28;20466;-79
2021/06/20 05:19:41;;;;;;;7.70;2.87;;;26.30;99.90;;;;;;4975006;28;20562;-80
2021/06/20 05:22:11;;;;;;;6.93;2.73;;;26.30;99.90;;;;;;4968804;28;20470;-79
2021/06/20 05:24:40;;;;;;;5.77;2.70;;;26.40;99.90;;;;;;4971989;28;20541;-79
2021/06/20 05:27:10;;;;;;;7.63;3.03;;;26.40;99.90;;;;;;4975727;28;20451;-79
2021/06/20 05:29:40;;;;;;;10.23;3.00;;;26.40;99.90;;;;;;4975083;28;20882;-79
2021/06/20 05:32:08;;;;;;;7.10;2.90;;;26.40;99.90;;;;;;4985344;28;20516;-78
2021/06/20 05:34:36;;;;;;;5.13;2.40;;;26.30;99.90;;;;;;4980693;28;20517;-78
2021/06/20 05:37:05;;;;;;;6.03;3.10;;;26.30;99.90;;;;;;4976501;28;20459;-78
2021/06/20 05:39:35;;;;;;;6.00;3.20;;;26.30;99.90;;;;;;4975012;28;20856;-78
2021/06/20 05:42:03;;;;;;;5.23;3.03;;;26.30;99.90;;;;;;4977938;28;20443;-79
2021/06/20 05:44:31;;;;;;;6.20;2.80;;;26.30;99.90;;;;;;4976451;28;20455;-79
2021/06/20 05:47:01;;;;;;;12.23;3.27;;;26.20;99.90;;;;;;4971974;28;20467;-78
2021/06/20 05:49:29;;;;;;;7.30;2.57;;;26.20;99.90;;;;;;4962403;28;21148;-79
2021/06/20 05:51:57;;;;;;;5.60;2.97;;;26.20;99.90;;;;;;4969613;28;20533;-79
2021/06/20 05:54:26;;;;;;;8.40;2.57;;;26.10;99.90;;;;;;4969794;28;20459;-80
2021/06/20 05:56:55;;;;;;;6.80;2.47;;;26.10;99.90;;;;;;4969569;28;20458;-77
2021/06/20 05:59:24;;;;;;;5.77;2.90;;;26.10;99.90;;;;;;4971007;28;20463;-75
2021/06/20 06:01:52;;;;;;;5.90;3.17;;;26.00;99.90;;;;;;4972367;28;20525;-78
2021/06/20 06:04:20;;;;;;;5.23;2.90;;;26.00;99.90;;;;;;4970052;28;20444;-77
2021/06/20 06:06:48;;;;;;;4.90;2.13;;;26.00;99.90;;;;;;4962257;28;20822;-77
2021/06/20 06:09:16;;;;;;;4.70;2.80;;;25.90;99.90;;;;;;4970506;28;20459;-77
2021/06/20 06:11:45;;;;;;;6.67;3.07;;;26.00;99.90;;;;;;4969908;28;21078;-76
2021/06/20 06:14:14;;;;;;;9.77;3.33;;;25.90;99.90;;;;;;4972234;28;20490;-76
2021/06/20 06:16:42;;;;;;;4.70;2.73;;;25.90;99.90;;;;;;4967114;28;21013;-76
2021/06/20 06:19:11;;;;;;;6.73;2.43;;;25.90;99.90;;;;;;4969987;28;20443;-77
2021/06/20 06:21:39;;;;;;;6.73;2.17;;;26.00;99.90;;;;;;4971663;28;20486;-77
2021/06/20 06:24:08;;;;;;;7.70;2.53;;;26.00;99.90;;;;;;4964238;28;20950;-76
2021/06/20 06:26:37;;;;;;;8.03;2.70;;;26.10;99.90;;;;;;4971063;28;20439;-77
2021/06/20 06:29:05;;;;;;;6.27;3.30;;;26.00;99.90;;;;;;4968228;28;21198;-75
2021/06/20 06:31:36;;;;;;;7.00;2.30;;;25.90;99.90;;;;;;4983519;28;20475;-75
2021/06/20 06:34:05;;;;;;;5.87;3.00;;;25.90;99.90;;;;;;4971400;28;20493;-77
2021/06/20 06:36:33;;;;;;;6.47;2.10;;;26.00;99.90;;;;;;4970580;28;20451;-76
2021/06/20 06:39:01;;;;;;;7.90;2.60;;;26.10;99.90;;;;;;4965157;28;20514;-74
2021/06/20 06:41:29;;;;;;;4.93;2.00;;;25.80;99.90;;;;;;4972142;28;20563;-75
2021/06/20 06:43:57;;;;;;;9.10;2.40;;;25.70;99.90;;;;;;4969674;28;20494;-74
2021/06/20 06:46:25;;;;;;;13.57;3.10;;;25.50;99.90;;;;;;4971040;28;20537;-75
2021/06/20 06:48:55;;;;;;;7.63;2.00;;;25.50;99.90;;;;;;4967775;28;20546;-75
2021/06/20 06:51:23;;;;;;;5.20;2.07;;;25.50;99.90;;;;;;4969233;28;20479;-74
2021/06/20 06:53:51;;;;;;;5.93;2.23;;;25.50;99.90;;;;;;4975464;28;20459;-76
2021/06/20 06:56:19;;;;;;;8.50;2.57;;;25.30;99.90;;;;;;4971534;28;20517;-76
2021/06/20 06:58:47;;;;;;;4.30;1.90;;;25.30;99.90;;;;;;4968817;28;20463;-75
2021/06/20 07:01:15;;;;;;;5.13;2.80;;;25.30;99.90;;;;;;4971358;28;20537;-76
2021/06/20 07:03:44;;;;;;;3.97;2.40;;;25.40;99.90;;;;;;4970445;28;20502;-75
2021/06/20 07:06:13;;;;;;;5.30;2.20;;;25.50;99.90;;;;;;4965653;28;20456;-76
2021/06/20 07:08:42;;;;;;;5.80;2.20;;;25.50;99.90;;;;;;4969820;28;20482;-74
2021/06/20 07:11:10;;;;;;;9.03;2.20;;;25.50;99.90;;;;;;4974504;28;20542;-75
2021/06/20 07:13:38;;;;;;;5.10;2.30;;;25.60;99.90;;;;;;4968491;28;20462;-75
2021/06/20 07:16:07;;;;;;;5.43;1.80;;;25.60;99.90;;;;;;4969330;28;20946;-76
2021/06/20 07:18:35;;;;;;;5.00;2.10;;;25.70;99.90;;;;;;4967926;28;20848;-75
2021/06/20 07:21:04;;;;;;;6.00;2.23;;;25.80;99.90;;;;;;4971092;28;20486;-75
2021/06/20 07:23:33;;;;;;;4.60;2.40;;;25.90;99.90;;;;;;4969060;28;21187;-75
2021/06/20 07:26:02;;;;;;;5.23;1.60;;;26.00;99.90;;;;;;4969476;28;20465;-73
2021/06/20 07:28:30;;;;;;;8.73;2.37;;;26.00;99.90;;;;;;4969609;28;20621;-76
2021/06/20 07:30:58;;;;;;;5.43;2.37;;;26.00;99.90;;;;;;4970781;28;21048;-76
2021/06/20 07:33:26;;;;;;;4.90;2.50;;;26.00;99.90;;;;;;4968394;28;20901;-75
2021/06/20 07:35:57;;;;;;;4.80;1.80;;;26.10;99.90;;;;;;4975861;28;20457;-76
2021/06/20 07:38:26;;;;;;;3.77;1.90;;;26.10;99.90;;;;;;4974253;28;20466;-77
2021/06/20 07:40:55;;;;;;;4.10;2.00;;;26.10;99.90;;;;;;4968443;28;20558;-75
2021/06/20 07:43:26;;;;;;;7.80;3.10;;;26.10;99.90;;;;;;4969986;28;20435;-76
2021/06/20 07:45:56;;;;;;;5.37;2.50;;;26.00;99.90;;;;;;4969745;28;20463;-76
2021/06/20 07:48:25;;;;;;;4.40;2.20;;;26.10;99.90;;;;;;4969055;28;20798;-75
2021/06/20 07:50:54;;;;;;;6.13;2.63;;;26.10;99.90;;;;;;4970691;28;20559;-75
2021/06/20 07:53:22;;;;;;;5.63;2.50;;;26.10;99.90;;;;;;4982685;28;20471;-74
2021/06/20 07:55:51;;;;;;;3.90;2.00;;;26.10;99.90;;;;;;4954047;28;20452;-76
2021/06/20 07:58:21;;;;;;;11.83;3.63;;;26.10;99.90;;;;;;4963017;28;20848;-76
2021/06/20 08:00:49;;;;;;;7.23;2.50;;;26.10;99.90;;;;;;4970213;28;21053;-75
2021/06/20 08:03:17;;;;;;;6.23;2.27;;;26.10;99.90;;;;;;4976539;28;20466;-76
2021/06/20 08:05:45;;;;;;;6.60;2.30;;;26.10;99.90;;;;;;4976303;28;21104;-77
2021/06/20 08:08:14;;;;;;;6.93;2.40;;;26.10;99.90;;;;;;4968888;28;20447;-77
2021/06/20 08:10:42;;;;;;;4.70;2.53;;;26.10;99.90;;;;;;4969494;28;20479;-77
2021/06/20 08:13:10;;;;;;;5.23;2.20;;;26.10;99.90;;;;;;4969662;28;20454;-77
2021/06/20 08:15:39;;;;;;;8.00;3.10;;;26.10;99.90;;;;;;4969514;28;20502;-76
2021/06/20 08:18:08;;;;;;;6.60;3.23;;;26.10;99.90;;;;;;4970779;28;20451;-78
2021/06/20 08:20:36;;;;;;;9.90;2.97;;;26.10;99.90;;;;;;4967660;28;20517;-76
2021/06/20 08:23:04;;;;;;;5.73;2.60;;;26.00;99.90;;;;;;4968215;28;21014;-76
2021/06/20 08:25:33;;;;;;;8.37;2.83;;;26.00;99.90;;;;;;4969049;28;20455;-76
2021/06/20 08:28:01;;;;;;;8.37;3.00;;;25.90;99.90;;;;;;4965089;28;20455;-76
2021/06/20 08:30:30;;;;;;;5.53;2.57;;;26.00;99.90;;;;;;4965077;28;21058;-76
2021/06/20 08:33:00;;;;;;;6.27;2.63;;;26.00;99.90;;;;;;4972826;28;20451;-75
2021/06/20 08:35:29;;;;;;;5.80;2.50;;;26.00;99.90;;;;;;4966923;28;20501;-76
2021/06/20 08:37:57;;;;;;;5.40;2.70;;;26.10;99.90;;;;;;4968218;28;20443;-76
2021/06/20 08:40:26;;;;;;;9.67;2.40;;;26.10;99.90;;;;;;4967025;28;20479;-75
2021/06/20 08:42:54;;;;;;;4.13;2.27;;;26.10;99.90;;;;;;4968108;28;20475;-76
2021/06/20 08:45:22;;;;;;;7.03;2.33;;;26.10;99.90;;;;;;4968719;28;20447;-76
2021/06/20 08:47:52;;;;;;;7.20;2.37;;;26.10;99.90;;;;;;4977302;28;21389;-77
2021/06/20 08:50:21;;;;;;;5.40;2.00;;;26.10;99.90;;;;;;4948437;28;20464;-76
2021/06/20 08:52:54;;;;;;;4.30;1.93;;;26.00;99.90;;;;;;4966182;28;20443;-75
2021/06/20 08:55:23;;;;;;;4.27;1.87;;;26.10;99.90;;;;;;4966029;28;20451;-76
2021/06/20 08:57:59;;;;;;;5.20;1.97;;;26.10;99.90;;;;;;4968077;28;20804;-76
2021/06/20 09:00:28;;;;;;;3.93;2.07;;;26.10;99.90;;;;;;4964934;28;20494;-76
2021/06/20 09:03:00;;;;;;;6.00;2.57;;;26.10;99.90;;;;;;4966653;28;21215;-77
2021/06/20 09:05:30;;;;;;;6.17;2.40;;;26.10;99.90;;;;;;4963967;28;20451;-77
2021/06/20 09:07:58;;;;;;;6.30;2.60;;;26.10;99.90;;;;;;4971767;28;20454;-76
2021/06/20 09:10:31;;;;;;;4.23;1.63;;;26.20;99.90;;;;;;4975982;28;20625;-78
2021/06/20 09:13:00;;;;;;;5.37;1.97;;;26.30;99.90;;;;;;4965998;28;20443;-76
2021/06/20 09:15:31;;;;;;;3.10;2.03;;;26.30;99.90;;;;;;4965743;28;20482;-76
2021/06/20 09:18:01;;;;;;;6.80;1.93;;;26.40;99.90;;;;;;4965282;28;20545;-76
2021/06/20 09:20:38;;;;;;;6.03;2.77;;;26.40;99.90;;;;;;4966337;28;20503;-76
2021/06/20 09:23:09;;;;;;;6.20;2.40;;;26.40;99.90;;;;;;4970656;28;20541;-76
2021/06/20 09:25:39;;;;;;;4.50;2.97;;;26.40;99.90;;;;;;4968713;28;20894;-76
2021/06/20 09:28:10;;;;;;;7.47;3.33;;;26.40;99.90;;;;;;4970743;28;20514;-76
2021/06/20 09:30:45;;;;;;;6.73;2.40;;;26.40;99.90;;;;;;4967124;28;20561;-76
2021/06/20 09:33:14;;;;;;;6.17;2.60;;;26.40;99.90;;;;;;4968119;28;20454;-76
2021/06/20 09:35:45;;;;;;;9.63;3.20;;;26.40;99.90;;;;;;4971758;28;20505;-76
2021/06/20 09:38:18;;;;;;;7.03;3.60;;;26.30;99.90;;;;;;4970614;28;20493;-76
2021/06/20 09:40:47;;;;;;;11.17;2.43;;;26.40;99.90;;;;;;4968532;28;21326;-76
2021/06/20 09:43:17;;;;;;;8.83;3.73;;;26.40;99.90;;;;;;4968560;28;20478;-75
2021/06/20 09:45:47;;;;;;;5.83;2.70;;;26.40;99.90;;;;;;4974494;28;20443;-77
2021/06/20 09:48:23;;;;;;;3.53;2.40;;;26.40;99.90;;;;;;4971596;28;20443;-75
2021/06/20 09:50:54;;;;;;;5.13;1.93;;;26.50;99.90;;;;;;4971702;28;21174;-74
2021/06/20 09:53:33;;;;;;;8.80;2.10;;;26.50;99.90;;;;;;4991608;28;20878;-75
2021/06/20 09:56:15;;;;;;;3.93;2.67;;;26.60;99.90;;;;;;4992421;28;20446;-75
2021/06/20 09:58:45;;;;;;;6.13;1.80;;;26.50;99.90;;;;;;4980270;28;20970;-75
2021/06/20 10:01:15;;;;;;;5.40;2.13;;;26.60;99.90;;;;;;4977275;28;20536;-75
2021/06/20 10:03:44;;;;;;;4.87;1.67;;;26.60;99.90;;;;;;4972259;28;20489;-77
2021/06/20 10:06:15;;;;;;;6.10;1.70;;;26.60;99.90;;;;;;4977491;28;20873;-77
2021/06/20 10:08:45;;;;;;;5.90;2.00;;;26.60;99.90;;;;;;4972606;28;20861;-77
2021/06/20 10:11:14;;;;;;;2.67;1.70;;;26.50;99.90;;;;;;4971820;28;20514;-77
2021/06/20 10:13:43;;;;;;;2.70;1.90;;;26.50;99.90;;;;;;4971087;28;20467;-76
2021/06/20 10:16:20;;;;;;;4.03;1.70;;;26.60;99.90;;;;;;4972023;28;21329;-77
2021/06/20 10:18:57;;;;;;;2.70;1.77;;;26.60;99.90;;;;;;4969322;28;20477;-74
2021/06/20 10:21:32;;;;;;;4.80;1.57;;;26.60;99.90;;;;;;4959126;28;20470;-75
2021/06/20 10:24:09;;;;;;;2.10;1.80;;;26.70;99.90;;;;;;4966949;28;20470;-75
2021/06/20 10:26:39;;;;;;;4.13;1.73;;;26.70;99.90;;;;;;4969205;28;20459;-76
2021/06/20 10:29:18;;;;;;;2.60;1.30;;;26.70;99.90;;;;;;4967444;28;20451;-76
2021/06/20 10:31:48;;;;;;;9.37;2.43;;;26.70;99.90;;;;;;4964593;28;20481;-80
2021/06/20 10:34:18;;;;;;;10.93;3.93;;;26.70;99.90;;;;;;4971068;28;20451;-78
2021/06/20 10:36:49;;;;;;;14.07;4.73;;;26.60;99.90;;;;;;4963839;28;20558;-77
2021/06/20 10:39:18;;;;;;;2.50;1.30;;;26.70;99.90;;;;;;4974859;28;20463;-80
2021/06/20 10:41:46;;;;;;;9.30;4.63;;;26.70;99.90;;;;;;4968282;28;20471;-68
2021/06/20 10:44:14;;;;;;;11.57;2.77;;;26.70;99.90;;;;;;4971138;28;20478;-68
2021/06/20 10:46:53;;;;;;;4.60;1.30;;;26.70;99.90;;;;;;4969601;28;20466;-69
2021/06/20 10:49:22;;;;;;;5.63;1.67;;;26.80;99.90;;;;;;4968819;28;20891;-69
2021/06/20 10:51:51;;;;;;;2.40;1.20;;;26.80;99.90;;;;;;4969591;28;20525;-68
2021/06/20 10:54:27;;;;;;;2.37;1.33;;;26.80;99.90;;;;;;4969649;28;20454;-69
2021/06/20 10:57:00;;;;;;;3.00;2.00;;;26.90;99.90;;;;;;4975188;28;20482;-70
2021/06/20 10:59:29;;;;;;;1.73;1.20;;;26.90;99.90;;;;;;4972224;28;20510;-68
2021/06/20 11:01:57;;;;;;;1.63;1.40;;;26.90;99.90;;;;;;4970072;28;20549;-68
2021/06/20 11:04:27;;;;;;;3.63;1.47;;;27.00;99.90;;;;;;4970010;28;20566;-68
2021/06/20 11:06:58;;;;;;;5.67;1.57;;;27.00;99.90;;;;;;4970157;28;20455;-68
2021/06/20 11:09:36;;;;;;;3.53;1.60;;;27.00;99.90;;;;;;4972772;28;20514;-68
2021/06/20 11:12:14;;;;;;;2.30;1.40;;;27.00;99.90;;;;;;4978586;28;20455;-68
2021/06/20 11:14:43;;;;;;;3.97;1.20;;;27.10;99.90;;;;;;4970975;28;20505;-69
2021/06/20 11:17:11;;;;;;;3.60;1.40;;;27.10;99.90;;;;;;4970505;28;20451;-67
2021/06/20 11:19:40;;;;;;;2.93;1.37;;;27.10;99.90;;;;;;4979692;28;20486;-68
2021/06/20 11:22:12;;;;;;;5.00;1.77;;;27.10;99.90;;;;;;4968487;28;20461;-70
2021/06/20 11:24:41;;;;;;;3.37;1.50;;;27.10;99.90;;;;;;4969555;28;20499;-69
2021/06/20 11:27:11;;;;;;;5.17;2.30;;;27.10;99.90;;;;;;4968383;28;20832;-69
2021/06/20 11:29:42;;;;;;;6.03;1.43;;;27.20;99.90;;;;;;4969456;28;20455;-69
2021/06/20 11:32:16;;;;;;;9.00;2.00;;;27.30;99.90;;;;;;4967816;28;20986;-69
2021/06/20 11:34:45;;;;;;;6.70;1.90;;;27.30;99.90;;;;;;4964574;28;20518;-69
2021/06/20 11:37:21;;;;;;;5.30;1.50;;;27.30;99.90;;;;;;4964136;28;20459;-69
2021/06/20 11:39:49;;;;;;;6.73;2.70;;;27.30;99.90;;;;;;4968810;28;20450;-69
2021/06/20 11:42:30;;;;;;;6.23;1.87;;;27.40;99.90;;;;;;4966412;28;20464;-72
2021/06/20 11:45:00;;;;;;;8.50;3.07;;;27.50;99.90;;;;;;4967868;28;20459;-69
2021/06/20 11:47:33;;;;;;;11.43;4.30;;;27.50;99.90;;;;;;4963649;28;20470;-69
2021/06/20 11:50:12;;;;;;;6.67;2.17;;;27.40;99.90;;;;;;4968550;28;20478;-70
2021/06/20 11:52:42;;;;;;;7.13;2.80;;;27.50;99.90;;;;;;4969126;28;20517;-69
2021/06/20 11:55:13;;;;;;;11.13;3.30;;;27.50;99.90;;;;;;4966405;28;21030;-70
2021/06/20 11:57:42;;;;;;;9.90;2.90;;;27.50;99.90;;;;;;4967414;28;20467;-68
2021/06/20 12:00:14;;;;;;;7.17;2.30;;;27.50;99.90;;;;;;4968776;28;20471;-69
2021/06/20 12:02:43;;;;;;;9.03;2.80;;;27.50;99.90;;;;;;4969993;28;20466;-70
2021/06/20 12:05:15;;;;;;;8.97;2.23;;;27.60;99.90;;;;;;4967965;28;20672;-68
2021/06/20 12:07:46;;;;;;;12.27;2.40;;;27.60;99.90;;;;;;4961813;28;20498;-69
2021/06/20 12:10:15;;;;;;;9.17;3.10;;;27.50;99.90;;;;;;4968005;28;20467;-69
2021/06/20 12:12:45;;;;;;;8.23;2.20;;;27.60;99.90;;;;;;4966694;28;20494;-71
2021/06/20 12:15:14;;;;;;;16.17;2.93;;;27.60;99.90;;;;;;4968573;28;20538;-69
2021/06/20 12:17:50;;;;;;;14.90;2.43;;;27.60;99.90;;;;;;4968141;28;20542;-68
2021/06/20 12:20:29;;;;;;;14.23;4.00;;;27.60;99.90;;;;;;4967601;28;20467;-69
2021/06/20 12:22:59;;;;;;;8.87;2.60;;;27.70;99.90;;;;;;4968582;28;20454;-68
2021/06/20 12:25:27;;;;;;;10.73;2.40;;;27.70;99.90;;;;;;4965720;28;20481;-68
2021/06/20 12:27:56;;;;;;;12.27;2.77;;;27.80;99.90;;;;;;4968672;28;20538;-68
2021/06/20 12:30:25;;;;;;;8.50;2.77;;;27.80;99.90;;;;;;4968090;28;20570;-78
2021/06/20 12:32:54;;;;;;;9.67;3.10;;;27.80;99.90;;;;;;4970674;28;20451;-81
2021/06/20 12:35:25;;;;;;;9.30;3.17;;;27.80;99.90;;;;;;4967818;28;20447;-82
2021/06/20 12:37:54;;;;;;;12.20;2.97;;;27.80;99.90;;;;;;4973184;28;20455;-81
2021/06/20 12:40:27;;;;;;;11.33;3.63;;;27.80;99.90;;;;;;4972091;28;20586;-81
2021/06/20 12:42:57;;;;;;;11.30;2.70;;;27.80;99.90;;;;;;4971732;28;20462;-82
2021/06/20 12:45:33;;;;;;;13.23;3.60;;;27.80;99.90;;;;;;4959364;28;20471;-81
2021/06/20 12:48:14;;;;;;;11.53;2.73;;;27.80;99.90;;;;;;4972219;28;20550;-81
2021/06/20 12:50:48;;;;;;;23.60;3.97;;;27.80;99.90;;;;;;4967628;28;20476;-79
2021/06/20 12:53:28;;;;;;;9.30;2.73;;;27.80;99.90;;;;;;4963619;28;21316;-85
2021/06/20 12:55:58;;;;;;;15.73;3.80;;;27.80;99.90;;;;;;4970489;28;20459;-84